Time;durP1;ratioP1;P1;durP2;ratioP2;P2;SDS_P1;SDS_P2;PMS_P1;PMS_P2;Temp;Humidity;BMP_temperature;BMP_pressure;BME280_temperature;BME280_humidity;BME280_pressure;Samples;Min_cycle;Max_cycle;Signal;HPM_P1;HPM_P2
2023/07/18 00:00:14;;;;;;;12.17;11.57;;;18.20;99.90;;;;;;6243966;23;20506;-84
2023/07/18 00:02:42;;;;;;;13.80;12.90;;;18.30;99.90;;;;;;6243908;23;20893;-86
2023/07/18 00:05:12;;;;;;;13.63;12.93;;;18.20;99.90;;;;;;6244793;23;20419;-80
2023/07/18 00:07:39;;;;;;;14.20;13.33;;;18.20;99.90;;;;;;6244027;23;20415;-84
2023/07/18 00:10:08;;;;;;;13.90;12.77;;;18.20;99.90;;;;;;6248007;23;20914;-81
2023/07/18 00:12:35;;;;;;;15.30;14.50;;;18.30;99.90;;;;;;6246726;23;20408;-81
2023/07/18 00:15:03;;;;;;;14.97;13.80;;;18.20;99.90;;;;;;6271087;22;20478;-84
2023/07/18 00:17:31;;;;;;;14.20;13.40;;;18.20;99.90;;;;;;6270395;22;20427;-80
2023/07/18 00:19:58;;;;;;;13.50;12.83;;;18.10;99.90;;;;;;6263407;23;20430;-81
2023/07/18 00:22:25;;;;;;;13.50;12.80;;;18.10;99.90;;;;;;6248473;23;20404;-81
2023/07/18 00:24:51;;;;;;;15.37;14.13;;;18.10;99.90;;;;;;6245969;23;20415;-80
2023/07/18 00:27:19;;;;;;;14.93;14.13;;;18.00;99.90;;;;;;6244408;23;20412;-81
2023/07/18 00:29:46;;;;;;;13.93;13.23;;;18.00;99.90;;;;;;6243336;23;20408;-80
2023/07/18 00:32:13;;;;;;;14.30;13.60;;;18.00;99.90;;;;;;6244348;23;20414;-87
2023/07/18 00:34:41;;;;;;;14.30;13.20;;;17.90;99.90;;;;;;6244356;23;20432;-84
2023/07/18 00:37:08;;;;;;;14.53;13.63;;;17.90;99.90;;;;;;6244235;23;20453;-84
2023/07/18 00:39:34;;;;;;;13.33;12.53;;;17.80;99.90;;;;;;6243467;23;20422;-84
2023/07/18 00:42:01;;;;;;;14.87;13.90;;;17.80;99.90;;;;;;6243507;23;20495;-85
2023/07/18 00:44:29;;;;;;;13.93;13.17;;;17.70;99.90;;;;;;6244081;23;20404;-85
2023/07/18 00:46:56;;;;;;;15.17;14.37;;;17.70;99.90;;;;;;6243809;23;20408;-87
2023/07/18 00:49:23;;;;;;;13.87;13.23;;;17.60;99.90;;;;;;6244643;23;20404;-84
2023/07/18 00:51:51;;;;;;;16.00;15.00;;;17.60;99.90;;;;;;6243769;23;20404;-83
2023/07/18 00:54:18;;;;;;;14.50;13.50;;;17.60;99.90;;;;;;6243075;22;20634;-84
2023/07/18 00:56:45;;;;;;;14.90;13.67;;;17.50;99.90;;;;;;6243733;23;20396;-83
2023/07/18 00:59:15;;;;;;;16.37;15.53;;;17.50;99.90;;;;;;6243626;23;20408;-83
2023/07/18 01:01:44;;;;;;;15.80;14.90;;;17.50;99.90;;;;;;6243661;23;20412;-83
2023/07/18 01:04:10;;;;;;;15.60;14.80;;;17.50;99.90;;;;;;6243616;23;20413;-82
2023/07/18 01:06:38;;;;;;;15.00;14.10;;;17.40;99.90;;;;;;6243177;23;20411;-83
2023/07/18 01:09:06;;;;;;;14.53;13.53;;;17.40;99.90;;;;;;6243305;23;20490;-83
2023/07/18 01:11:34;;;;;;;14.63;13.83;;;17.30;99.90;;;;;;6243541;23;20490;-84
2023/07/18 01:14:01;;;;;;;13.70;13.00;;;17.40;99.90;;;;;;6243656;23;20629;-85
2023/07/18 01:16:27;;;;;;;14.50;13.77;;;17.30;99.90;;;;;;6243378;23;20413;-80
2023/07/18 01:18:55;;;;;;;13.63;12.93;;;17.30;99.90;;;;;;6243563;23;20408;-81
2023/07/18 01:21:23;;;;;;;14.00;13.37;;;17.20;99.90;;;;;;6243332;23;20427;-81
2023/07/18 01:23:50;;;;;;;16.50;15.60;;;17.20;99.90;;;;;;6242782;23;20458;-80
2023/07/18 01:26:17;;;;;;;14.50;13.53;;;17.20;99.90;;;;;;6243065;23;20414;-81
2023/07/18 01:28:44;;;;;;;15.73;14.73;;;17.10;99.90;;;;;;6243030;23;20474;-81
2023/07/18 01:31:11;;;;;;;15.50;14.40;;;17.10;99.90;;;;;;6243266;23;20404;-77
2023/07/18 01:33:37;;;;;;;16.07;15.10;;;17.10;99.90;;;;;;6242837;23;20432;-77
2023/07/18 01:36:06;;;;;;;16.53;15.43;;;17.00;99.90;;;;;;6242878;23;20415;-77
2023/07/18 01:38:35;;;;;;;15.63;14.63;;;16.90;99.90;;;;;;6242832;23;20412;-77
2023/07/18 01:41:02;;;;;;;14.80;13.97;;;16.90;99.90;;;;;;6242721;23;20733;-76
2023/07/18 01:43:29;;;;;;;16.13;15.23;;;16.90;99.90;;;;;;6242685;23;20426;-77
2023/07/18 01:45:58;;;;;;;15.27;14.47;;;16.90;99.90;;;;;;6243474;23;20410;-76
2023/07/18 01:48:26;;;;;;;15.10;14.20;;;16.90;99.90;;;;;;6242807;23;20899;-77
2023/07/18 01:50:53;;;;;;;15.60;14.60;;;16.80;99.90;;;;;;6243035;23;20502;-81
2023/07/18 01:53:19;;;;;;;14.57;13.73;;;16.80;99.90;;;;;;6242873;22;20423;-82
2023/07/18 01:55:47;;;;;;;15.00;14.30;;;16.70;99.90;;;;;;6242279;23;20955;-81
2023/07/18 01:58:14;;;;;;;15.77;14.87;;;16.70;99.90;;;;;;6242712;23;20482;-81
2023/07/18 02:00:41;;;;;;;15.27;14.37;;;16.70;99.90;;;;;;6242715;23;20414;-81
2023/07/18 02:03:08;;;;;;;17.23;16.20;;;16.60;99.90;;;;;;6243090;23;20403;-81
2023/07/18 02:05:35;;;;;;;16.87;15.77;;;16.60;99.90;;;;;;6242739;23;20410;-78
2023/07/18 02:08:01;;;;;;;16.17;15.07;;;16.60;99.90;;;;;;6242630;23;20554;-79
2023/07/18 02:10:28;;;;;;;15.53;14.63;;;16.50;99.90;;;;;;6242570;23;20431;-80
2023/07/18 02:12:58;;;;;;;16.30;15.20;;;16.50;99.90;;;;;;6242939;23;20415;-79
2023/07/18 02:15:25;;;;;;;16.07;15.27;;;16.50;99.90;;;;;;6242955;23;20446;-79
2023/07/18 02:17:52;;;;;;;16.87;15.80;;;16.40;99.90;;;;;;6242994;23;20408;-79
2023/07/18 02:20:19;;;;;;;15.37;14.50;;;16.50;99.90;;;;;;6242657;23;20440;-78
2023/07/18 02:22:46;;;;;;;15.70;14.40;;;16.40;99.90;;;;;;6242578;23;20412;-78
2023/07/18 02:25:15;;;;;;;15.17;14.40;;;16.40;99.90;;;;;;6242540;23;20414;-78
2023/07/18 02:27:42;;;;;;;15.53;14.80;;;16.30;99.90;;;;;;6242060;23;20423;-78
2023/07/18 02:30:12;;;;;;;15.13;14.23;;;16.40;99.90;;;;;;6242218;23;20431;-77
2023/07/18 02:32:39;;;;;;;16.37;15.17;;;16.30;99.90;;;;;;6241608;23;20426;-82
2023/07/18 02:35:07;;;;;;;16.97;15.93;;;16.30;99.90;;;;;;6242282;23;20550;-82
2023/07/18 02:37:34;;;;;;;17.43;16.33;;;16.30;99.90;;;;;;6241498;23;20408;-81
2023/07/18 02:40:03;;;;;;;15.67;14.40;;;16.30;99.90;;;;;;6240836;23;20416;-82
2023/07/18 02:42:33;;;;;;;15.10;14.20;;;16.30;99.90;;;;;;6241005;23;20407;-82
2023/07/18 02:45:00;;;;;;;15.33;14.40;;;16.20;99.90;;;;;;6241550;23;20498;-82
2023/07/18 02:47:28;;;;;;;17.47;16.00;;;16.20;99.90;;;;;;6243480;23;20412;-82
2023/07/18 02:49:55;;;;;;;15.00;13.97;;;16.10;99.90;;;;;;6243164;23;20408;-83
2023/07/18 02:52:22;;;;;;;15.20;14.37;;;16.10;99.90;;;;;;6243504;23;20408;-84
2023/07/18 02:54:50;;;;;;;15.37;14.37;;;16.00;99.90;;;;;;6242488;22;20853;-78
2023/07/18 02:57:17;;;;;;;15.60;14.60;;;16.00;99.90;;;;;;6242316;23;20799;-78
2023/07/18 02:59:44;;;;;;;15.60;14.80;;;16.10;99.90;;;;;;6242426;23;20493;-78
2023/07/18 03:02:10;;;;;;;16.37;15.47;;;15.90;99.90;;;;;;6242720;23;20408;-79
2023/07/18 03:04:38;;;;;;;16.30;15.60;;;15.90;99.90;;;;;;6242586;23;20399;-79
2023/07/18 03:07:07;;;;;;;16.70;15.60;;;15.90;99.90;;;;;;6242465;23;20419;-79
2023/07/18 03:09:34;;;;;;;17.67;16.40;;;15.90;99.90;;;;;;6242533;23;20408;-79
2023/07/18 03:12:02;;;;;;;17.60;16.50;;;15.90;99.90;;;;;;6242730;23;20701;-79
2023/07/18 03:14:29;;;;;;;17.03;16.03;;;15.80;99.90;;;;;;6242706;23;20741;-79
2023/07/18 03:16:55;;;;;;;17.90;16.90;;;15.80;99.90;;;;;;6242996;23;20556;-79
2023/07/18 03:19:22;;;;;;;17.50;16.43;;;15.70;99.90;;;;;;6242520;23;20408;-79
2023/07/18 03:21:50;;;;;;;18.70;17.70;;;15.60;99.90;;;;;;6242801;23;20412;-79
2023/07/18 03:24:17;;;;;;;16.90;15.90;;;15.50;99.90;;;;;;6242683;23;20406;-79
2023/07/18 03:26:44;;;;;;;16.60;15.50;;;15.60;99.90;;;;;;6243309;23;20411;-78
2023/07/18 03:29:10;;;;;;;16.53;15.40;;;15.50;99.90;;;;;;6242955;23;20408;-78
2023/07/18 03:31:39;;;;;;;16.37;15.27;;;15.50;99.90;;;;;;6242781;23;20907;-79
2023/07/18 03:34:06;;;;;;;16.63;15.50;;;15.60;99.90;;;;;;6242886;23;20439;-79
2023/07/18 03:36:33;;;;;;;18.30;17.30;;;15.60;99.90;;;;;;6242583;23;20409;-78
2023/07/18 03:39:01;;;;;;;15.63;14.77;;;15.60;99.90;;;;;;6242437;23;20400;-79
2023/07/18 03:41:28;;;;;;;16.70;15.70;;;15.50;99.90;;;;;;6242646;23;20773;-79
2023/07/18 03:43:56;;;;;;;18.30;17.10;;;15.50;99.90;;;;;;6243225;23;20416;-78
2023/07/18 03:46:23;;;;;;;19.07;17.93;;;15.50;99.90;;;;;;6242923;23;20423;-78
2023/07/18 03:48:51;;;;;;;17.80;16.90;;;15.50;99.90;;;;;;6244698;23;20662;-78
2023/07/18 03:51:17;;;;;;;18.07;16.70;;;15.60;99.90;;;;;;6244722;23;20411;-78
2023/07/18 03:53:44;;;;;;;17.03;16.13;;;15.60;99.90;;;;;;6245472;22;20423;-78
2023/07/18 03:56:13;;;;;;;15.83;14.83;;;15.60;99.90;;;;;;6255296;23;20458;-78
2023/07/18 03:58:40;;;;;;;16.23;15.10;;;15.70;99.90;;;;;;6268839;23;20408;-78
2023/07/18 04:01:08;;;;;;;15.37;14.67;;;15.80;99.90;;;;;;6259044;23;20404;-81
2023/07/18 04:03:35;;;;;;;16.97;15.90;;;15.80;99.90;;;;;;6242828;23;20746;-82
2023/07/18 04:06:02;;;;;;;16.20;15.10;;;15.80;99.90;;;;;;6242385;23;20396;-75
2023/07/18 04:08:29;;;;;;;17.97;17.07;;;15.70;99.90;;;;;;6241481;23;20416;-78
2023/07/18 04:10:58;;;;;;;17.53;16.40;;;15.70;99.90;;;;;;6241997;23;20408;-75
2023/07/18 04:13:26;;;;;;;17.13;16.33;;;15.70;99.90;;;;;;6242285;23;20731;-78
2023/07/18 04:15:54;;;;;;;16.90;15.87;;;15.70;99.90;;;;;;6242209;23;20510;-77
2023/07/18 04:18:20;;;;;;;18.30;17.20;;;15.70;99.90;;;;;;6242317;23;20910;-77
2023/07/18 04:20:49;;;;;;;18.30;17.20;;;15.70;99.90;;;;;;6241614;23;20412;-79
2023/07/18 04:23:15;;;;;;;18.40;16.77;;;15.70;99.90;;;;;;6242006;23;20410;-79
2023/07/18 04:25:55;;;;;;;17.60;16.40;;;15.80;99.90;;;;;;6242276;23;20515;-78
2023/07/18 04:28:22;;;;;;;17.47;16.17;;;15.80;99.90;;;;;;6242730;23;20445;-79
2023/07/18 04:30:50;;;;;;;17.13;16.13;;;15.80;99.90;;;;;;6241740;23;20420;-77
2023/07/18 04:33:17;;;;;;;17.90;16.80;;;15.70;99.90;;;;;;6241993;23;20407;-77
2023/07/18 04:35:45;;;;;;;18.90;17.80;;;15.80;99.90;;;;;;6241391;23;20583;-76
2023/07/18 04:38:12;;;;;;;18.43;17.37;;;15.90;99.90;;;;;;6241758;23;20407;-78
2023/07/18 04:40:38;;;;;;;16.90;15.40;;;16.00;99.90;;;;;;6242094;23;20466;-78
2023/07/18 04:43:05;;;;;;;16.40;15.50;;;16.30;99.90;;;;;;6241650;23;20434;-82
2023/07/18 04:45:32;;;;;;;16.27;15.47;;;16.70;99.90;;;;;;6241425;23;20720;-78
2023/07/18 04:48:00;;;;;;;17.17;15.63;;;17.20;99.90;;;;;;6241392;23;20416;-78
2023/07/18 04:50:28;;;;;;;15.80;14.90;;;17.50;99.90;;;;;;6241768;23;20426;-79
2023/07/18 04:52:55;;;;;;;15.57;14.70;;;17.90;99.90;;;;;;6242193;22;20408;-80
2023/07/18 04:55:22;;;;;;;14.27;13.47;;;18.20;99.90;;;;;;6242167;23;20448;-81
2023/07/18 04:57:49;;;;;;;14.83;13.93;;;18.40;99.90;;;;;;6242087;23;20782;-78
2023/07/18 05:00:17;;;;;;;14.63;13.80;;;18.60;99.90;;;;;;6239457;23;20493;-80
2023/07/18 05:02:43;;;;;;;17.83;16.63;;;18.90;99.90;;;;;;6241000;23;20439;-79
2023/07/18 05:05:13;;;;;;;16.87;15.97;;;19.00;99.90;;;;;;6241496;23;20408;-79
2023/07/18 05:07:41;;;;;;;18.37;17.33;;;19.10;99.90;;;;;;6241163;23;20432;-80
2023/07/18 05:10:08;;;;;;;17.37;16.07;;;19.40;99.90;;;;;;6229181;23;20444;-79
2023/07/18 05:12:35;;;;;;;15.07;14.20;;;19.70;99.90;;;;;;6239345;23;20404;-74
2023/07/18 05:15:02;;;;;;;15.70;14.80;;;19.90;99.90;;;;;;6241044;23;20782;-83
2023/07/18 05:17:29;;;;;;;16.00;15.00;;;20.20;99.90;;;;;;6241442;23;20407;-82
2023/07/18 05:19:55;;;;;;;15.37;14.30;;;20.60;99.90;;;;;;6241168;23;20412;-75
2023/07/18 05:22:23;;;;;;;16.20;15.20;;;20.70;99.90;;;;;;6237667;23;20939;-75
2023/07/18 05:24:50;;;;;;;16.17;15.03;;;20.70;99.90;;;;;;6240830;23;20420;-75
2023/07/18 05:27:17;;;;;;;16.10;14.90;;;20.80;99.90;;;;;;6237426;23;20408;-76
2023/07/18 05:29:45;;;;;;;15.43;14.43;;;20.90;99.90;;;;;;6240533;23;20415;-76
2023/07/18 05:32:12;;;;;;;16.27;15.47;;;21.10;99.90;;;;;;6241184;23;20442;-76
2023/07/18 05:34:38;;;;;;;16.63;15.73;;;21.20;99.90;;;;;;6241466;23;20412;-76
2023/07/18 05:37:06;;;;;;;15.67;14.77;;;21.40;99.90;;;;;;6241228;23;20462;-78
2023/07/18 05:39:34;;;;;;;16.20;15.23;;;21.90;99.90;;;;;;6241184;23;20735;-75
2023/07/18 05:42:00;;;;;;;17.07;15.87;;;22.50;99.90;;;;;;6241095;23;20408;-75
2023/07/18 05:44:27;;;;;;;17.47;16.50;;;22.60;99.90;;;;;;6240832;23;20419;-75
2023/07/18 05:46:54;;;;;;;16.07;15.13;;;22.30;99.90;;;;;;6241308;23;20419;-75
2023/07/18 05:49:20;;;;;;;15.50;14.60;;;22.20;99.90;;;;;;6240779;23;20438;-75
2023/07/18 05:51:47;;;;;;;15.43;14.43;;;22.40;99.90;;;;;;6240476;23;20412;-75
2023/07/18 05:54:14;;;;;;;15.27;14.47;;;22.10;99.90;;;;;;6240473;22;20431;-75
2023/07/18 05:56:42;;;;;;;16.27;15.37;;;22.20;99.90;;;;;;6240817;23;20428;-75
2023/07/18 05:59:09;;;;;;;15.93;15.07;;;22.20;99.90;;;;;;6241002;23;20412;-76
2023/07/18 06:01:36;;;;;;;15.70;14.70;;;22.40;99.80;;;;;;6240771;23;20408;-76
2023/07/18 06:04:03;;;;;;;17.37;16.07;;;22.40;99.70;;;;;;6240545;23;20431;-75
2023/07/18 06:06:31;;;;;;;17.00;15.97;;;22.30;99.90;;;;;;6240400;23;20412;-75
2023/07/18 06:08:58;;;;;;;17.20;16.10;;;22.70;99.60;;;;;;6239713;23;20434;-76
2023/07/18 06:11:24;;;;;;;15.47;14.37;;;23.20;98.20;;;;;;6234397;23;20443;-76
2023/07/18 06:13:52;;;;;;;15.50;14.80;;;23.50;97.50;;;;;;6240779;23;20740;-76
2023/07/18 06:16:19;;;;;;;16.50;15.60;;;23.50;96.60;;;;;;6240500;23;20443;-76
2023/07/18 06:18:46;;;;;;;16.87;15.80;;;23.60;97.00;;;;;;6240317;23;20495;-77
2023/07/18 06:21:13;;;;;;;15.83;15.00;;;24.00;95.90;;;;;;6240133;23;20433;-77
2023/07/18 06:23:39;;;;;;;16.57;15.50;;;24.40;95.20;;;;;;6240994;23;20408;-77
2023/07/18 06:26:06;;;;;;;15.83;14.87;;;25.10;93.90;;;;;;6240752;23;20442;-77
2023/07/18 06:28:33;;;;;;;16.57;15.67;;;25.40;92.20;;;;;;6239546;23;20419;-77
2023/07/18 06:31:01;;;;;;;18.17;17.17;;;25.50;92.10;;;;;;6240628;23;20415;-77
2023/07/18 06:33:27;;;;;;;16.97;15.67;;;25.60;91.30;;;;;;6240544;23;20922;-77
2023/07/18 06:35:55;;;;;;;18.13;17.23;;;25.90;91.00;;;;;;6240080;23;20444;-77
2023/07/18 06:38:22;;;;;;;17.77;16.40;;;26.60;89.10;;;;;;6240197;23;20412;-77
2023/07/18 06:40:49;;;;;;;16.27;15.33;;;26.70;86.00;;;;;;6240222;23;20415;-77
2023/07/18 06:43:17;;;;;;;16.80;15.80;;;27.00;86.00;;;;;;6239524;23;20418;-77
2023/07/18 06:45:44;;;;;;;19.17;15.93;;;27.30;84.20;;;;;;6239901;23;20404;-75
2023/07/18 06:48:12;;;;;;;16.70;15.80;;;27.40;83.90;;;;;;6240369;23;20435;-75
2023/07/18 06:50:43;;;;;;;16.53;15.30;;;27.80;82.80;;;;;;6240951;23;20412;-75
2023/07/18 06:53:10;;;;;;;15.50;14.70;;;28.10;80.40;;;;;;6240923;22;20430;-77
2023/07/18 06:55:37;;;;;;;17.17;16.20;;;28.40;78.90;;;;;;6240242;23;20448;-75
2023/07/18 06:58:03;;;;;;;17.17;16.17;;;28.70;76.50;;;;;;6240571;23;20404;-75
2023/07/18 07:00:30;;;;;;;17.27;16.27;;;28.90;76.70;;;;;;6240632;23;20415;-75
2023/07/18 07:02:57;;;;;;;16.40;15.30;;;29.30;75.00;;;;;;6240448;23;20415;-76
2023/07/18 07:05:25;;;;;;;16.90;15.53;;;29.60;73.70;;;;;;6240949;23;20399;-75
2023/07/18 07:07:51;;;;;;;17.70;16.70;;;29.70;73.10;;;;;;6240972;23;20426;-75
2023/07/18 07:10:18;;;;;;;17.63;16.70;;;29.60;72.50;;;;;;6241225;23;20512;-78
2023/07/18 07:12:45;;;;;;;17.53;16.33;;;29.90;72.50;;;;;;6240559;23;20411;-76
2023/07/18 07:15:12;;;;;;;17.30;16.50;;;30.40;70.00;;;;;;6233760;22;20743;-74
2023/07/18 07:17:39;;;;;;;17.43;16.50;;;30.50;68.00;;;;;;6240535;23;20412;-75
2023/07/18 07:20:07;;;;;;;19.63;18.60;;;30.50;68.10;;;;;;6240011;23;20407;-75
2023/07/18 07:22:35;;;;;;;18.73;17.63;;;30.60;68.70;;;;;;6240274;23;20403;-75
2023/07/18 07:25:03;;;;;;;16.27;15.47;;;30.70;68.60;;;;;;6240287;23;20820;-75
2023/07/18 07:27:29;;;;;;;18.37;17.27;;;31.10;66.20;;;;;;6240017;23;20989;-75
2023/07/18 07:29:56;;;;;;;18.63;17.43;;;31.50;64.60;;;;;;6240130;23;20407;-75
2023/07/18 07:32:23;;;;;;;17.60;16.70;;;31.80;63.00;;;;;;6240823;23;20430;-76
2023/07/18 07:34:49;;;;;;;17.97;16.63;;;31.70;62.20;;;;;;6240189;23;20419;-75
2023/07/18 07:37:16;;;;;;;15.90;15.10;;;31.50;62.50;;;;;;6241482;23;20455;-75
2023/07/18 07:39:44;;;;;;;17.03;16.07;;;31.50;62.00;;;;;;6241073;23;20408;-75
2023/07/18 07:42:11;;;;;;;17.40;16.30;;;32.10;61.30;;;;;;6240803;23;20407;-77
2023/07/18 07:44:38;;;;;;;17.90;16.43;;;32.60;59.10;;;;;;6242860;23;20408;-75
2023/07/18 07:47:05;;;;;;;17.03;16.23;;;32.90;58.80;;;;;;6242155;23;20430;-75
2023/07/18 07:49:32;;;;;;;17.20;16.27;;;33.00;59.20;;;;;;6240674;23;20736;-75
2023/07/18 07:51:58;;;;;;;19.10;17.80;;;33.00;59.00;;;;;;6241523;23;20408;-75
2023/07/18 07:54:25;;;;;;;17.07;16.27;;;33.60;57.40;;;;;;6242213;22;20440;-75
2023/07/18 07:56:54;;;;;;;17.30;16.40;;;33.40;56.90;;;;;;6242411;23;20511;-75
2023/07/18 07:59:21;;;;;;;18.20;16.93;;;33.00;57.20;;;;;;6242541;23;20438;-76
2023/07/18 08:01:47;;;;;;;17.30;16.50;;;32.80;58.30;;;;;;6242090;23;20415;-75
2023/07/18 08:04:14;;;;;;;18.30;17.40;;;33.40;57.10;;;;;;6242403;23;20411;-76
2023/07/18 08:06:41;;;;;;;19.30;18.30;;;33.20;57.20;;;;;;6242649;23;20411;-76
2023/07/18 08:09:08;;;;;;;18.30;17.30;;;33.50;57.00;;;;;;6242781;23;20404;-75
2023/07/18 08:11:34;;;;;;;18.47;17.33;;;34.00;55.80;;;;;;6242306;23;20415;-76
2023/07/18 08:14:02;;;;;;;17.53;16.53;;;34.40;54.60;;;;;;6241642;23;20412;-76
2023/07/18 08:16:29;;;;;;;18.40;17.30;;;34.40;54.50;;;;;;6241659;23;20431;-75
2023/07/18 08:18:56;;;;;;;17.30;16.20;;;34.90;53.70;;;;;;6241908;23;20414;-76
2023/07/18 08:21:22;;;;;;;17.17;16.23;;;34.70;53.30;;;;;;6241922;23;20903;-76
2023/07/18 08:23:50;;;;;;;16.07;15.20;;;34.70;52.60;;;;;;6241844;23;20471;-75
2023/07/18 08:26:16;;;;;;;15.83;14.93;;;34.70;52.70;;;;;;6242038;23;20816;-76
2023/07/18 08:28:43;;;;;;;17.70;16.50;;;34.60;52.40;;;;;;6242093;23;20408;-76
2023/07/18 08:31:11;;;;;;;16.07;15.17;;;34.30;53.20;;;;;;6243312;23;20408;-76
2023/07/18 08:33:38;;;;;;;16.37;15.57;;;34.70;51.70;;;;;;6242735;23;20408;-76
2023/07/18 08:36:05;;;;;;;17.73;16.63;;;35.20;50.60;;;;;;6242653;23;20450;-76
2023/07/18 08:38:32;;;;;;;15.20;14.70;;;34.60;51.70;;;;;;6242678;23;20408;-76
2023/07/18 08:40:59;;;;;;;17.83;16.70;;;34.60;50.90;;;;;;6243191;23;20408;-75
2023/07/18 08:43:26;;;;;;;16.90;16.00;;;34.20;51.50;;;;;;6242381;23;20910;-76
2023/07/18 08:45:53;;;;;;;17.13;16.23;;;34.30;51.50;;;;;;6242836;23;20411;-75
2023/07/18 08:48:21;;;;;;;16.80;16.00;;;34.90;50.20;;;;;;6242858;23;20414;-75
2023/07/18 08:50:48;;;;;;;15.63;15.03;;;35.10;49.30;;;;;;6242933;23;20404;-76
2023/07/18 08:53:15;;;;;;;16.63;15.70;;;35.80;48.30;;;;;;6242754;22;20511;-76
2023/07/18 08:55:42;;;;;;;17.40;16.20;;;35.70;48.50;;;;;;6242348;23;20440;-76
2023/07/18 08:58:09;;;;;;;17.33;16.20;;;36.20;47.80;;;;;;6242624;23;20431;-76
2023/07/18 09:00:36;;;;;;;16.27;15.57;;;36.50;46.50;;;;;;6242621;23;20407;-76
2023/07/18 09:03:03;;;;;;;16.17;15.47;;;36.20;46.00;;;;;;6243028;23;20736;-76
2023/07/18 09:05:33;;;;;;;17.30;16.60;;;35.90;46.20;;;;;;6242129;23;20668;-75
2023/07/18 09:08:01;;;;;;;16.97;16.07;;;36.00;46.70;;;;;;6242241;23;20408;-76
2023/07/18 09:10:28;;;;;;;16.60;15.50;;;36.40;46.10;;;;;;6242304;23;20408;-76
2023/07/18 09:12:55;;;;;;;16.93;16.23;;;36.40;45.50;;;;;;6243024;23;20430;-76
2023/07/18 09:15:22;;;;;;;17.30;16.53;;;36.20;45.60;;;;;;6243003;23;20415;-76
2023/07/18 09:17:53;;;;;;;16.97;16.20;;;36.60;45.20;;;;;;6242149;23;20451;-76
2023/07/18 09:20:21;;;;;;;16.93;16.23;;;36.80;44.70;;;;;;6242292;23;20415;-74
2023/07/18 09:22:50;;;;;;;15.87;15.20;;;37.30;44.20;;;;;;6242721;23;20408;-76
2023/07/18 09:25:17;;;;;;;17.40;16.70;;;36.80;44.00;;;;;;6242499;23;20526;-76
2023/07/18 09:27:44;;;;;;;17.50;16.50;;;37.00;44.00;;;;;;6242367;23;20415;-75
2023/07/18 09:30:11;;;;;;;17.80;16.90;;;37.80;42.70;;;;;;6242898;23;20732;-75
2023/07/18 09:32:38;;;;;;;16.80;15.80;;;38.00;41.50;;;;;;6242450;23;20407;-76
2023/07/18 09:35:06;;;;;;;16.27;15.57;;;37.80;42.10;;;;;;6242349;23;20855;-76
2023/07/18 09:37:43;;;;;;;17.13;16.43;;;38.00;42.00;;;;;;6242254;23;20475;-76
2023/07/18 09:40:13;;;;;;;17.43;16.73;;;38.60;40.80;;;;;;6242683;23;20808;-76
2023/07/18 09:42:42;;;;;;;18.40;17.60;;;39.20;39.20;;;;;;6242591;23;20434;-76
2023/07/18 09:45:10;;;;;;;18.40;17.50;;;39.30;39.00;;;;;;6242932;23;20415;-76
2023/07/18 09:47:39;;;;;;;18.23;17.40;;;39.20;38.80;;;;;;6243013;23;20733;-76
2023/07/18 09:50:07;;;;;;;15.93;15.23;;;39.30;38.60;;;;;;6242771;23;20501;-75
2023/07/18 09:52:40;;;;;;;17.43;16.70;;;39.00;38.50;;;;;;6242120;23;20949;-75
2023/07/18 09:55:09;;;;;;;17.60;16.80;;;39.60;37.90;;;;;;6241904;22;20439;-77
2023/07/18 09:57:41;;;;;;;18.60;17.70;;;39.10;38.70;;;;;;6242579;23;20526;-76
2023/07/18 10:00:11;;;;;;;18.03;17.13;;;38.90;38.00;;;;;;6242463;23;20862;-77
2023/07/18 10:02:39;;;;;;;17.97;16.93;;;38.50;38.50;;;;;;6242354;23;20427;-76
2023/07/18 10:05:09;;;;;;;19.30;18.40;;;38.50;38.60;;;;;;6242473;23;20404;-75
2023/07/18 10:07:37;;;;;;;18.53;17.63;;;38.40;38.10;;;;;;6242348;23;20388;-75
2023/07/18 10:10:07;;;;;;;18.90;18.00;;;37.40;39.00;;;;;;6242237;23;20412;-75
2023/07/18 10:12:36;;;;;;;17.87;17.07;;;36.50;40.00;;;;;;6242274;23;20418;-75
2023/07/18 10:15:05;;;;;;;19.03;18.03;;;35.60;41.80;;;;;;6242394;23;20404;-75
2023/07/18 10:17:36;;;;;;;18.20;17.40;;;35.60;42.60;;;;;;6242207;23;20446;-76
2023/07/18 10:20:10;;;;;;;18.77;17.60;;;35.40;42.60;;;;;;6242104;23;20412;-75
2023/07/18 10:22:37;;;;;;;18.33;17.53;;;34.50;42.90;;;;;;6242747;23;20679;-75
2023/07/18 10:25:07;;;;;;;17.50;16.70;;;34.00;44.50;;;;;;6241903;23;20416;-76
2023/07/18 10:27:38;;;;;;;17.60;16.40;;;33.50;45.70;;;;;;6241982;23;20426;-77
2023/07/18 10:30:07;;;;;;;17.00;15.83;;;32.80;46.70;;;;;;6239185;23;20411;-76
2023/07/18 10:32:37;;;;;;;17.07;16.10;;;32.00;47.10;;;;;;6242364;23;20411;-77
2023/07/18 10:35:07;;;;;;;17.80;17.00;;;31.20;48.60;;;;;;6239616;23;20408;-77
2023/07/18 10:37:36;;;;;;;17.43;16.60;;;30.60;50.00;;;;;;6241365;23;20428;-76
2023/07/18 10:40:06;;;;;;;16.77;15.67;;;29.80;51.70;;;;;;6240481;23;20443;-76
2023/07/18 10:42:34;;;;;;;16.30;15.50;;;28.80;53.50;;;;;;6242184;23;20518;-76
2023/07/18 10:45:04;;;;;;;16.33;15.53;;;28.20;56.40;;;;;;6241653;23;20450;-77
2023/07/18 10:47:33;;;;;;;16.60;15.70;;;28.00;56.90;;;;;;6242381;23;20412;-76
2023/07/18 10:50:00;;;;;;;16.70;16.00;;;28.40;57.20;;;;;;6241668;23;20435;-76
2023/07/18 10:52:28;;;;;;;15.93;15.23;;;29.90;56.30;;;;;;6241670;23;20404;-76
2023/07/18 10:54:56;;;;;;;17.23;16.23;;;31.00;52.20;;;;;;6241586;22;20965;-76
2023/07/18 10:57:27;;;;;;;17.03;16.10;;;32.30;51.00;;;;;;6241727;23;20451;-77
2023/07/18 10:59:54;;;;;;;16.97;15.80;;;33.00;48.10;;;;;;6241162;23;20903;-77
2023/07/18 11:02:21;;;;;;;17.67;16.80;;;33.10;49.10;;;;;;6241648;23;20415;-77
2023/07/18 11:04:51;;;;;;;18.00;17.10;;;34.00;47.90;;;;;;6241586;23;20896;-75
2023/07/18 11:07:18;;;;;;;17.70;16.90;;;35.40;45.90;;;;;;6243320;23;20408;-75
2023/07/18 11:09:45;;;;;;;17.37;16.57;;;35.60;45.40;;;;;;6242770;23;20676;-76
2023/07/18 11:12:18;;;;;;;17.93;17.03;;;34.90;46.10;;;;;;6244037;23;20412;-75
2023/07/18 11:14:45;;;;;;;18.80;17.67;;;35.00;45.50;;;;;;6243292;23;20477;-75
2023/07/18 11:17:13;;;;;;;17.53;16.53;;;34.20;46.10;;;;;;6243641;23;20440;-75
2023/07/18 11:19:40;;;;;;;18.23;17.17;;;33.60;47.30;;;;;;6243445;23;20403;-75
2023/07/18 11:22:10;;;;;;;15.80;14.97;;;33.20;48.20;;;;;;6240904;23;20498;-75
2023/07/18 11:24:37;;;;;;;17.53;16.43;;;32.00;50.40;;;;;;6239603;23;20416;-76
2023/07/18 11:27:18;;;;;;;15.80;15.10;;;31.20;51.40;;;;;;6239839;23;20475;-76
2023/07/18 11:30:08;;;;;;;16.30;15.60;;;30.80;52.90;;;;;;6240400;23;20404;-75
2023/07/18 11:32:39;;;;;;;16.90;16.10;;;30.50;54.20;;;;;;6233846;23;20418;-74
2023/07/18 11:35:08;;;;;;;15.30;14.60;;;29.90;54.00;;;;;;6244246;23;20399;-76
2023/07/18 11:37:41;;;;;;;16.20;15.50;;;29.50;54.90;;;;;;6241467;23;20439;-75
2023/07/18 11:40:09;;;;;;;15.00;14.30;;;29.30;55.90;;;;;;6243895;23;20723;-75
2023/07/18 11:42:47;;;;;;;15.93;14.93;;;29.00;56.80;;;;;;6243801;23;20450;-76
2023/07/18 11:45:17;;;;;;;15.40;14.57;;;28.70;57.50;;;;;;6243546;23;20392;-77
2023/07/18 11:47:45;;;;;;;15.93;15.10;;;28.40;58.70;;;;;;6243875;23;20510;-76
2023/07/18 11:50:12;;;;;;;17.10;15.97;;;28.20;60.10;;;;;;6243537;23;20430;-75
2023/07/18 11:52:41;;;;;;;16.30;15.60;;;28.10;61.50;;;;;;6243525;23;20411;-75
2023/07/18 11:55:08;;;;;;;16.67;15.87;;;27.80;61.70;;;;;;6243257;22;20439;-76
2023/07/18 11:57:35;;;;;;;16.20;15.30;;;27.90;66.10;;;;;;6243316;23;20455;-76
2023/07/18 12:00:02;;;;;;;15.57;14.57;;;27.90;71.00;;;;;;6241341;23;20458;-76
2023/07/18 12:02:29;;;;;;;15.40;14.67;;;27.80;66.40;;;;;;6243277;23;20431;-75
2023/07/18 12:04:56;;;;;;;15.40;14.70;;;27.80;66.30;;;;;;6240825;23;20518;-75
2023/07/18 12:07:23;;;;;;;16.27;15.47;;;28.20;63.90;;;;;;6242951;23;20427;-75
2023/07/18 12:09:51;;;;;;;15.57;14.77;;;28.50;63.70;;;;;;6243003;23;20408;-75
2023/07/18 12:12:19;;;;;;;14.90;14.00;;;28.30;63.70;;;;;;6242184;23;20412;-75
2023/07/18 12:14:46;;;;;;;16.23;15.23;;;28.30;64.70;;;;;;6242716;23;20412;-75
2023/07/18 12:17:13;;;;;;;14.77;14.00;;;28.40;64.70;;;;;;6242911;23;20447;-74
2023/07/18 12:19:39;;;;;;;15.00;14.10;;;28.50;64.00;;;;;;6242934;23;20403;-75
2023/07/18 12:22:06;;;;;;;14.97;13.90;;;28.80;63.90;;;;;;6243329;23;20434;-75
2023/07/18 12:24:33;;;;;;;16.33;15.10;;;29.00;63.50;;;;;;6242596;23;20411;-75
2023/07/18 12:27:01;;;;;;;16.00;15.30;;;29.30;63.30;;;;;;6243036;23;20400;-75
2023/07/18 12:29:28;;;;;;;15.40;14.70;;;29.60;61.60;;;;;;6242696;23;20937;-75